TimeCDT,TemperatureF,Dew PointF,Humidity,Sea Level PressureIn,VisibilityMPH,Wind Direction,Wind SpeedMPH,Gust SpeedMPH,PrecipitationIn,Events,Conditions,WindDirDegrees,DateUTC
12:15 AM,61.7,49.6,65,29.88,10.0,SSE,10.4,-,N/A,,Clear,150,2013-06-08 05:15:00
12:35 AM,62.1,49.8,64,29.88,10.0,SSE,11.5,-,N/A,,Clear,150,2013-06-08 05:35:00
12:55 AM,61.7,50.0,65,29.88,10.0,SSE,10.4,-,N/A,,Clear,150,2013-06-08 05:55:00
1:15 AM,60.8,50.2,68,29.87,10.0,SSE,10.4,-,N/A,,Clear,150,2013-06-08 06:15:00
1:35 AM,60.8,50.2,68,29.87,10.0,SSE,10.4,-,N/A,,Clear,150,2013-06-08 06:35:00
1:55 AM,60.8,50.2,68,29.87,10.0,SSE,10.4,-,N/A,,Clear,150,2013-06-08 06:55:00
2:15 AM,60.1,50.2,70,29.88,10.0,SSE,8.1,-,N/A,,Clear,150,2013-06-08 07:15:00
2:35 AM,59.5,50.2,71,29.87,10.0,SSE,8.1,-,N/A,,Clear,150,2013-06-08 07:35:00
2:55 AM,59.0,50.0,72,29.87,10.0,SSE,9.2,-,N/A,,Clear,150,2013-06-08 07:55:00
3:15 AM,58.1,50.0,74,29.85,10.0,SE,8.1,-,N/A,,Clear,140,2013-06-08 08:15:00
3:35 AM,57.4,50.0,76,29.84,10.0,SE,6.9,-,N/A,,Clear,130,2013-06-08 08:35:00
3:55 AM,56.7,50.0,78,29.83,10.0,SE,8.1,-,N/A,,Scattered Clouds,130,2013-06-08 08:55:00
4:15 AM,57.2,50.4,78,29.84,10.0,SSE,8.1,-,N/A,,Scattered Clouds,150,2013-06-08 09:15:00
4:35 AM,57.0,50.4,78,29.84,10.0,SE,8.1,-,N/A,,Clear,130,2013-06-08 09:35:00
4:55 AM,57.0,50.7,79,29.83,10.0,SE,6.9,-,N/A,,Clear,140,2013-06-08 09:55:00
5:15 AM,57.9,50.7,77,29.83,10.0,SSE,9.2,-,N/A,,Clear,150,2013-06-08 10:15:00
5:35 AM,58.5,50.9,76,29.83,10.0,SSE,11.5,-,N/A,,Scattered Clouds,150,2013-06-08 10:35:00
5:55 AM,59.0,50.9,74,29.83,10.0,SSE,11.5,-,N/A,,Scattered Clouds,150,2013-06-08 10:55:00
6:15 AM,59.2,50.9,74,29.83,10.0,SSE,13.8,-,N/A,,Clear,150,2013-06-08 11:15:00
6:35 AM,59.5,51.1,74,29.82,10.0,SSE,15.0,19.6,N/A,,Clear,150,2013-06-08 11:35:00
6:55 AM,59.9,51.1,73,29.82,10.0,SSE,11.5,-,N/A,,Clear,150,2013-06-08 11:55:00
7:15 AM,60.3,51.3,72,29.82,10.0,SSE,12.7,-,N/A,,Scattered Clouds,160,2013-06-08 12:15:00
7:35 AM,61.0,51.3,70,29.82,10.0,SSE,15.0,-,N/A,,Mostly Cloudy,160,2013-06-08 12:35:00
7:55 AM,61.7,51.3,69,29.82,10.0,SSE,12.7,-,N/A,,Mostly Cloudy,150,2013-06-08 12:55:00
8:15 AM,62.4,51.3,67,29.82,10.0,SSE,13.8,-,N/A,,Mostly Cloudy,150,2013-06-08 13:15:00
8:35 AM,63.5,51.8,66,29.81,10.0,SSE,12.7,19.6,N/A,,Scattered Clouds,150,2013-06-08 13:35:00
8:55 AM,64.2,51.8,64,29.82,10.0,SSE,13.8,-,N/A,,Mostly Cloudy,160,2013-06-08 13:55:00
9:15 AM,64.6,52.5,65,29.82,10.0,SSE,10.4,-,N/A,Rain,Light Rain,150,2013-06-08 14:15:00
9:35 AM,63.9,55.2,73,29.84,10.0,SSW,8.1,-,N/A,Rain,Light Rain,200,2013-06-08 14:35:00
9:55 AM,61.7,56.3,82,29.83,7.0,South,5.8,-,0.03,Rain,Light Rain,190,2013-06-08 14:55:00
10:15 AM,60.8,57.2,88,29.83,10.0,SE,5.8,-,0.02,Rain,Light Rain,140,2013-06-08 15:15:00
10:35 AM,61.3,57.4,87,29.82,10.0,SE,8.1,-,0.02,,Drizzle,140,2013-06-08 15:35:00
10:55 AM,62.1,57.9,86,29.81,10.0,SE,11.5,-,0.02,,Overcast,130,2013-06-08 15:55:00
11:15 AM,62.2,57.9,86,29.80,10.0,ESE,13.8,-,N/A,,Overcast,120,2013-06-08 16:15:00
11:35 AM,62.2,58.3,87,29.79,10.0,SE,15.0,-,N/A,,Overcast,130,2013-06-08 16:35:00
11:55 AM,62.1,58.6,89,29.77,10.0,ESE,17.3,23.0,0.01,Rain,Light Rain,120,2013-06-08 16:55:00
12:15 PM,62.6,59.0,88,29.76,10.0,ESE,16.1,21.9,0.02,Rain,Light Rain,120,2013-06-08 17:15:00
12:35 PM,63.3,59.0,86,29.77,10.0,ESE,15.0,-,0.02,,Overcast,120,2013-06-08 17:35:00
12:55 PM,63.7,59.2,85,29.77,10.0,ESE,15.0,-,0.02,,Overcast,110,2013-06-08 17:55:00
1:15 PM,64.0,59.0,84,29.77,10.0,East,12.7,-,N/A,,Overcast,100,2013-06-08 18:15:00
1:35 PM,64.8,59.4,83,29.76,10.0,East,13.8,-,N/A,,Overcast,100,2013-06-08 18:35:00
1:55 PM,65.3,59.5,82,29.76,10.0,East,13.8,-,N/A,,Overcast,100,2013-06-08 18:55:00
2:15 PM,66.2,59.7,80,29.74,10.0,ESE,18.4,21.9,N/A,,Overcast,110,2013-06-08 19:15:00
2:35 PM,67.8,60.8,78,29.73,10.0,ESE,21.9,26.5,N/A,,Mostly Cloudy,110,2013-06-08 19:35:00
2:55 PM,68.7,60.8,76,29.73,10.0,ESE,23.0,-,N/A,,Mostly Cloudy,120,2013-06-08 19:55:00
3:15 PM,68.0,61.2,79,29.73,10.0,ESE,17.3,24.2,N/A,,Overcast,120,2013-06-08 20:15:00
3:35 PM,68.2,61.0,78,29.72,10.0,ESE,19.6,-,N/A,,Overcast,120,2013-06-08 20:35:00
3:55 PM,67.5,61.7,82,29.71,10.0,East,13.8,-,N/A,Rain,Light Rain,100,2013-06-08 20:55:00
4:15 PM,68.5,62.2,80,29.70,10.0,ESE,12.7,-,N/A,,Overcast,110,2013-06-08 21:15:00
4:35 PM,69.8,62.6,78,29.70,10.0,SE,16.1,20.7,N/A,,Overcast,130,2013-06-08 21:35:00
4:55 PM,68.0,63.3,85,29.70,7.0,SE,19.6,27.6,0.05,Rain,Heavy Rain,140,2013-06-08 21:55:00
5:15 PM,66.2,63.5,91,29.69,2.0,SE,13.8,-,0.29,Rain,Heavy Rain,140,2013-06-08 22:15:00
5:35 PM,66.2,63.9,92,29.66,5.0,East,13.8,31.1,0.43,Rain,Light Rain,100,2013-06-08 22:35:00
5:55 PM,67.1,63.9,89,29.66,10.0,East,13.8,-,0.43,,Overcast,100,2013-06-08 22:55:00
6:15 PM,68.0,64.0,87,29.65,10.0,SE,13.8,18.4,N/A,,Overcast,130,2013-06-08 23:15:00
6:35 PM,65.8,60.8,84,29.71,4.0,WSW,20.7,25.3,0.09,Rain,Heavy Rain,250,2013-06-08 23:35:00
6:55 PM,63.5,61.2,92,29.68,1.8,SSE,6.9,-,0.59,Rain,Heavy Rain,160,2013-06-08 23:55:00
7:15 PM,63.0,61.0,93,29.69,10.0,South,8.1,-,0.02,Rain,Light Rain,170,2013-06-09 00:15:00
7:35 PM,63.0,61.0,93,29.69,10.0,South,9.2,-,0.02,,Scattered Clouds,170,2013-06-09 00:35:00
7:55 PM,63.1,61.2,93,29.69,10.0,South,4.6,-,0.03,,Clear,170,2013-06-09 00:55:00
8:15 PM,63.5,61.3,93,29.69,10.0,SSW,5.8,-,N/A,,Clear,200,2013-06-09 01:15:00
8:35 PM,64.2,61.0,89,29.69,10.0,SSW,9.2,-,N/A,,Mostly Cloudy,210,2013-06-09 01:35:00
8:55 PM,65.3,61.7,88,29.69,10.0,SSW,9.2,-,N/A,,Scattered Clouds,210,2013-06-09 01:55:00
9:15 PM,65.5,61.7,88,29.68,10.0,SW,9.2,-,N/A,,Clear,220,2013-06-09 02:15:00
9:35 PM,65.3,61.3,87,29.69,10.0,SW,8.1,-,N/A,,Clear,220,2013-06-09 02:35:00
9:55 PM,65.5,61.0,85,29.70,10.0,SSW,8.1,-,N/A,,Clear,210,2013-06-09 02:55:00
10:15 PM,64.8,60.8,87,29.71,10.0,SSW,5.8,-,N/A,,Clear,210,2013-06-09 03:15:00
10:35 PM,64.9,60.3,85,29.72,10.0,SSW,6.9,-,N/A,,Clear,210,2013-06-09 03:35:00
10:55 PM,64.8,59.9,84,29.72,10.0,SSW,6.9,-,N/A,,Clear,210,2013-06-09 03:55:00
11:15 PM,64.4,59.5,84,29.72,10.0,SW,6.9,-,N/A,,Clear,220,2013-06-09 04:15:00
11:35 PM,63.9,59.5,86,29.73,10.0,SW,9.2,-,N/A,,Clear,220,2013-06-09 04:35:00
11:55 PM,64.0,59.5,85,29.73,10.0,SW,11.5,-,N/A,,Scattered Clouds,230,2013-06-09 04:55:00